sensor_id;sensor_type;location;lat;lon;timestamp;pressure;altitude;pressure_sealevel;temperature;humidity
63097;BME280;49185;42.320;23.198;2024-02-21T00:02:08;95515.75;;;3.83;100.00
63097;BME280;49185;42.320;23.198;2024-02-21T00:04:33;95512.22;;;3.75;100.00
63097;BME280;49185;42.320;23.198;2024-02-21T00:06:59;95506.31;;;3.73;100.00
63097;BME280;49185;42.320;23.198;2024-02-21T00:09:24;95512.59;;;3.72;100.00
63097;BME280;49185;42.320;23.198;2024-02-21T00:11:49;95512.78;;;3.71;100.00
63097;BME280;49185;42.320;23.198;2024-02-21T00:14:15;95510.31;;;3.69;100.00
63097;BME280;49185;42.320;23.198;2024-02-21T00:16:40;95511.84;;;3.78;100.00
63097;BME280;49185;42.320;23.198;2024-02-21T00:19:06;95516.28;;;3.78;100.00
63097;BME280;49185;42.320;23.198;2024-02-21T00:21:31;95508.31;;;3.71;100.00
63097;BME280;49185;42.320;23.198;2024-02-21T00:23:56;95502.97;;;3.79;100.00
63097;BME280;49185;42.320;23.198;2024-02-21T00:26:22;95510.03;;;3.79;100.00
63097;BME280;49185;42.320;23.198;2024-02-21T00:28:47;95513.41;;;3.73;100.00
63097;BME280;49185;42.320;23.198;2024-02-21T00:31:13;95506.97;;;3.75;100.00
63097;BME280;49185;42.320;23.198;2024-02-21T00:33:38;95512.84;;;3.77;100.00
63097;BME280;49185;42.320;23.198;2024-02-21T00:36:04;95516.91;;;3.80;100.00
63097;BME280;49185;42.320;23.198;2024-02-21T00:38:29;95507.78;;;3.76;100.00
63097;BME280;49185;42.320;23.198;2024-02-21T00:40:55;95504.72;;;3.72;100.00
63097;BME280;49185;42.320;23.198;2024-02-21T00:43:20;95506.72;;;3.70;100.00
63097;BME280;49185;42.320;23.198;2024-02-21T00:45:45;95510.22;;;3.77;100.00
63097;BME280;49185;42.320;23.198;2024-02-21T00:48:11;95505.94;;;3.76;100.00
63097;BME280;49185;42.320;23.198;2024-02-21T00:50:36;95508.47;;;3.85;100.00
63097;BME280;49185;42.320;23.198;2024-02-21T00:53:02;95505.94;;;3.76;100.00
63097;BME280;49185;42.320;23.198;2024-02-21T00:55:27;95510.22;;;3.77;100.00
63097;BME280;49185;42.320;23.198;2024-02-21T00:57:52;95510.59;;;3.74;100.00
63097;BME280;49185;42.320;23.198;2024-02-21T01:00:18;95506.91;;;3.69;100.00
63097;BME280;49185;42.320;23.198;2024-02-21T01:02:44;95507.88;;;3.68;100.00
63097;BME280;49185;42.320;23.198;2024-02-21T01:05:09;95502.00;;;3.87;100.00
63097;BME280;49185;42.320;23.198;2024-02-21T01:07:34;95501.31;;;3.78;100.00
63097;BME280;49185;42.320;23.198;2024-02-21T01:10:00;95499.97;;;3.83;100.00
63097;BME280;49185;42.320;23.198;2024-02-21T01:12:25;95495.69;;;3.82;100.00
63097;BME280;49185;42.320;23.198;2024-02-21T01:14:50;95496.31;;;3.84;100.00
63097;BME280;49185;42.320;23.198;2024-02-21T01:17:16;95493.75;;;3.90;100.00
63097;BME280;49185;42.320;23.198;2024-02-21T01:19:41;95488.22;;;3.85;100.00
63097;BME280;49185;42.320;23.198;2024-02-21T01:22:07;95496.66;;;3.80;100.00
63097;BME280;49185;42.320;23.198;2024-02-21T01:24:32;95485.16;;;3.82;100.00
63097;BME280;49185;42.320;23.198;2024-02-21T01:26:58;95491.53;;;3.72;100.00
63097;BME280;49185;42.320;23.198;2024-02-21T01:29:23;95478.25;;;3.80;100.00
63097;BME280;49185;42.320;23.198;2024-02-21T01:31:48;95483.31;;;3.82;100.00
63097;BME280;49185;42.320;23.198;2024-02-21T01:34:14;95477.44;;;3.80;100.00
63097;BME280;49185;42.320;23.198;2024-02-21T01:36:39;95475.56;;;3.74;100.00
63097;BME280;49185;42.320;23.198;2024-02-21T01:39:05;95484.63;;;3.71;100.00
63097;BME280;49185;42.320;23.198;2024-02-21T01:41:31;95485.00;;;3.68;100.00
63097;BME280;49185;42.320;23.198;2024-02-21T01:43:56;95483.47;;;3.74;100.00
63097;BME280;49185;42.320;23.198;2024-02-21T01:46:23;95484.47;;;3.73;100.00
63097;BME280;49185;42.320;23.198;2024-02-21T01:48:48;95472.38;;;3.78;100.00
63097;BME280;49185;42.320;23.198;2024-02-21T01:51:15;95478.03;;;3.75;100.00
63097;BME280;49185;42.320;23.198;2024-02-21T01:53:43;95469.72;;;3.78;100.00
63097;BME280;49185;42.320;23.198;2024-02-21T01:56:08;95468.31;;;3.76;100.00
63097;BME280;49185;42.320;23.198;2024-02-21T01:58:37;95471.38;;;3.79;100.00
63097;BME280;49185;42.320;23.198;2024-02-21T02:01:03;95468.59;;;3.66;100.00
63097;BME280;49185;42.320;23.198;2024-02-21T02:03:29;95474.00;;;3.79;100.00
63097;BME280;49185;42.320;23.198;2024-02-21T02:05:55;95463.56;;;3.86;100.00
63097;BME280;49185;42.320;23.198;2024-02-21T02:08:21;95464.72;;;3.84;100.00
63097;BME280;49185;42.320;23.198;2024-02-21T02:10:46;95468.16;;;3.84;100.00
63097;BME280;49185;42.320;23.198;2024-02-21T02:13:12;95465.78;;;3.89;100.00
63097;BME280;49185;42.320;23.198;2024-02-21T02:15:41;95471.03;;;3.89;100.00
63097;BME280;49185;42.320;23.198;2024-02-21T02:18:07;95471.31;;;3.94;100.00
63097;BME280;49185;42.320;23.198;2024-02-21T02:20:33;95463.41;;;3.94;100.00
63097;BME280;49185;42.320;23.198;2024-02-21T02:23:07;95456.53;;;3.93;100.00
63097;BME280;49185;42.320;23.198;2024-02-21T02:25:33;95459.16;;;3.93;100.00
63097;BME280;49185;42.320;23.198;2024-02-21T02:27:58;95462.28;;;3.82;100.00
63097;BME280;49185;42.320;23.198;2024-02-21T02:30:24;95458.75;;;3.75;100.00
63097;BME280;49185;42.320;23.198;2024-02-21T02:32:49;95461.13;;;3.70;100.00
63097;BME280;49185;42.320;23.198;2024-02-21T02:35:14;95452.81;;;3.88;100.00
63097;BME280;49185;42.320;23.198;2024-02-21T02:37:40;95458.41;;;3.78;100.00
63097;BME280;49185;42.320;23.198;2024-02-21T02:40:06;95450.63;;;3.70;100.00
63097;BME280;49185;42.320;23.198;2024-02-21T02:42:32;95446.19;;;3.70;100.00
63097;BME280;49185;42.320;23.198;2024-02-21T02:44:57;95443.56;;;3.70;100.00
63097;BME280;49185;42.320;23.198;2024-02-21T02:47:23;95447.00;;;3.71;100.00
63097;BME280;49185;42.320;23.198;2024-02-21T02:49:48;95449.19;;;3.89;100.00
63097;BME280;49185;42.320;23.198;2024-02-21T02:52:14;95445.84;;;3.80;100.00
63097;BME280;49185;42.320;23.198;2024-02-21T02:54:39;95448.59;;;3.72;100.00
63097;BME280;49185;42.320;23.198;2024-02-21T02:57:04;95444.91;;;3.66;100.00
63097;BME280;49185;42.320;23.198;2024-02-21T02:59:30;95441.28;;;3.67;100.00
63097;BME280;49185;42.320;23.198;2024-02-21T03:01:55;95446.56;;;3.67;100.00
63097;BME280;49185;42.320;23.198;2024-02-21T03:04:21;95441.47;;;3.66;100.00
63097;BME280;49185;42.320;23.198;2024-02-21T03:06:46;95443.75;;;3.69;100.00
63097;BME280;49185;42.320;23.198;2024-02-21T03:09:11;95452.81;;;3.66;100.00
63097;BME280;49185;42.320;23.198;2024-02-21T03:11:37;95451.44;;;3.70;100.00
63097;BME280;49185;42.320;23.198;2024-02-21T03:14:02;95457.06;;;3.67;100.00
63097;BME280;49185;42.320;23.198;2024-02-21T03:16:27;95452.81;;;3.66;100.00
63097;BME280;49185;42.320;23.198;2024-02-21T03:18:53;95467.59;;;3.89;100.00
63097;BME280;49185;42.320;23.198;2024-02-21T03:21:18;95458.31;;;3.93;100.00
63097;BME280;49185;42.320;23.198;2024-02-21T03:23:43;95464.97;;;3.89;100.00
63097;BME280;49185;42.320;23.198;2024-02-21T03:26:09;95471.88;;;3.90;100.00
63097;BME280;49185;42.320;23.198;2024-02-21T03:28:34;95470.25;;;3.89;100.00
63097;BME280;49185;42.320;23.198;2024-02-21T03:30:59;95470.56;;;3.79;100.00
63097;BME280;49185;42.320;23.198;2024-02-21T03:33:25;95468.47;;;3.74;100.00
63097;BME280;49185;42.320;23.198;2024-02-21T03:35:50;95471.31;;;3.73;100.00
63097;BME280;49185;42.320;23.198;2024-02-21T03:38:15;95461.41;;;3.75;100.00
63097;BME280;49185;42.320;23.198;2024-02-21T03:40:41;95464.03;;;3.75;100.00
63097;BME280;49185;42.320;23.198;2024-02-21T03:43:06;95451.06;;;3.73;100.00
63097;BME280;49185;42.320;23.198;2024-02-21T03:45:32;95460.78;;;3.73;100.00
63097;BME280;49185;42.320;23.198;2024-02-21T03:47:57;95467.16;;;3.85;100.00
63097;BME280;49185;42.320;23.198;2024-02-21T03:50:22;95468.13;;;3.77;100.00
63097;BME280;49185;42.320;23.198;2024-02-21T03:52:48;95464.66;;;3.77;100.00
63097;BME280;49185;42.320;23.198;2024-02-21T03:55:13;95465.50;;;3.77;100.00
63097;BME280;49185;42.320;23.198;2024-02-21T03:57:38;95467.72;;;3.80;100.00
63097;BME280;49185;42.320;23.198;2024-02-21T04:00:05;95475.50;;;3.89;100.00
63097;BME280;49185;42.320;23.198;2024-02-21T04:02:30;95475.25;;;3.84;100.00
63097;BME280;49185;42.320;23.198;2024-02-21T04:04:56;95476.28;;;3.83;100.00
63097;BME280;49185;42.320;23.198;2024-02-21T04:07:21;95476.06;;;3.84;100.00
63097;BME280;49185;42.320;23.198;2024-02-21T04:09:46;95477.88;;;3.84;100.00
63097;BME280;49185;42.320;23.198;2024-02-21T04:12:12;95477.50;;;3.87;100.00
63097;BME280;49185;42.320;23.198;2024-02-21T04:14:37;95477.06;;;3.83;100.00
63097;BME280;49185;42.320;23.198;2024-02-21T04:17:02;95483.50;;;3.80;100.00
63097;BME280;49185;42.320;23.198;2024-02-21T04:19:28;95474.19;;;3.78;100.00
63097;BME280;49185;42.320;23.198;2024-02-21T04:21:53;95479.00;;;3.74;100.00
63097;BME280;49185;42.320;23.198;2024-02-21T04:24:18;95473.41;;;3.84;100.00
63097;BME280;49185;42.320;23.198;2024-02-21T04:26:44;95475.50;;;3.89;100.00
63097;BME280;49185;42.320;23.198;2024-02-21T04:29:09;95473.75;;;3.96;100.00
63097;BME280;49185;42.320;23.198;2024-02-21T04:31:35;95474.25;;;3.85;100.00
63097;BME280;49185;42.320;23.198;2024-02-21T04:34:00;95475.25;;;3.84;100.00
63097;BME280;49185;42.320;23.198;2024-02-21T04:36:25;95472.97;;;3.80;100.00
63097;BME280;49185;42.320;23.198;2024-02-21T04:38:51;95477.81;;;3.77;100.00
63097;BME280;49185;42.320;23.198;2024-02-21T04:41:16;95483.28;;;3.75;100.00
63097;BME280;49185;42.320;23.198;2024-02-21T04:43:42;95482.41;;;3.90;100.00
63097;BME280;49185;42.320;23.198;2024-02-21T04:46:07;95479.59;;;3.91;100.00
63097;BME280;49185;42.320;23.198;2024-02-21T04:48:32;95483.41;;;3.89;100.00
63097;BME280;49185;42.320;23.198;2024-02-21T04:50:58;95473.81;;;3.81;100.00
63097;BME280;49185;42.320;23.198;2024-02-21T04:53:23;95473.00;;;4.02;100.00
63097;BME280;49185;42.320;23.198;2024-02-21T04:55:49;95473.50;;;3.91;100.00
63097;BME280;49185;42.320;23.198;2024-02-21T04:58:14;95474.34;;;3.91;100.00
63097;BME280;49185;42.320;23.198;2024-02-21T05:00:39;95475.63;;;3.80;100.00
63097;BME280;49185;42.320;23.198;2024-02-21T05:03:05;95474.56;;;3.75;100.00
63097;BME280;49185;42.320;23.198;2024-02-21T05:05:30;95471.31;;;3.73;100.00
63097;BME280;49185;42.320;23.198;2024-02-21T05:07:55;95477.75;;;3.70;100.00
63097;BME280;49185;42.320;23.198;2024-02-21T05:10:21;95473.06;;;3.66;100.00
63097;BME280;49185;42.320;23.198;2024-02-21T05:12:46;95473.84;;;3.66;100.00
63097;BME280;49185;42.320;23.198;2024-02-21T05:15:11;95477.31;;;3.67;100.00
63097;BME280;49185;42.320;23.198;2024-02-21T05:17:38;95479.94;;;3.67;100.00
63097;BME280;49185;42.320;23.198;2024-02-21T05:20:03;95475.25;;;3.62;100.00
63097;BME280;49185;42.320;23.198;2024-02-21T05:22:29;95482.00;;;3.71;100.00
63097;BME280;49185;42.320;23.198;2024-02-21T05:24:54;95482.59;;;3.67;100.00
63097;BME280;49185;42.320;23.198;2024-02-21T05:27:20;95482.38;;;3.68;100.00
63097;BME280;49185;42.320;23.198;2024-02-21T05:29:45;95490.28;;;3.68;100.00
63097;BME280;49185;42.320;23.198;2024-02-21T05:32:10;95494.47;;;3.84;100.00
63097;BME280;49185;42.320;23.198;2024-02-21T05:34:36;95484.97;;;3.83;100.00
63097;BME280;49185;42.320;23.198;2024-02-21T05:37:01;95488.41;;;3.84;100.00
63097;BME280;49185;42.320;23.198;2024-02-21T05:39:26;95490.41;;;3.82;100.00
63097;BME280;49185;42.320;23.198;2024-02-21T05:41:52;95491.66;;;3.86;100.00
63097;BME280;49185;42.320;23.198;2024-02-21T05:44:18;95496.06;;;3.78;100.00
63097;BME280;49185;42.320;23.198;2024-02-21T05:46:43;95497.69;;;3.79;100.00
63097;BME280;49185;42.320;23.198;2024-02-21T05:49:09;95497.44;;;3.74;100.00
63097;BME280;49185;42.320;23.198;2024-02-21T05:51:35;95501.19;;;3.65;100.00
63097;BME280;49185;42.320;23.198;2024-02-21T05:54:01;95494.47;;;3.63;100.00
63097;BME280;49185;42.320;23.198;2024-02-21T05:56:26;95500.16;;;3.66;100.00
63097;BME280;49185;42.320;23.198;2024-02-21T05:58:51;95500.63;;;3.70;100.00
63097;BME280;49185;42.320;23.198;2024-02-21T06:01:17;95505.69;;;3.71;100.00
63097;BME280;49185;42.320;23.198;2024-02-21T06:03:42;95506.31;;;3.73;100.00
63097;BME280;49185;42.320;23.198;2024-02-21T06:06:07;95512.03;;;3.77;100.00
63097;BME280;49185;42.320;23.198;2024-02-21T06:08:33;95515.34;;;3.86;100.00
63097;BME280;49185;42.320;23.198;2024-02-21T06:10:58;95512.88;;;3.99;100.00
63097;BME280;49185;42.320;23.198;2024-02-21T06:13:24;95525.41;;;3.97;100.00
63097;BME280;49185;42.320;23.198;2024-02-21T06:15:50;95527.66;;;4.00;100.00
63097;BME280;49185;42.320;23.198;2024-02-21T06:18:17;95536.44;;;4.07;100.00
63097;BME280;49185;42.320;23.198;2024-02-21T06:20:42;95537.88;;;4.10;100.00
63097;BME280;49185;42.320;23.198;2024-02-21T06:23:08;95541.47;;;4.24;100.00
63097;BME280;49185;42.320;23.198;2024-02-21T06:25:33;95543.28;;;4.45;100.00
63097;BME280;49185;42.320;23.198;2024-02-21T06:27:58;95544.56;;;4.55;100.00
63097;BME280;49185;42.320;23.198;2024-02-21T06:30:24;95547.63;;;4.59;100.00
63097;BME280;49185;42.320;23.198;2024-02-21T06:32:49;95560.41;;;4.84;100.00
63097;BME280;49185;42.320;23.198;2024-02-21T06:35:14;95552.88;;;4.81;100.00
63097;BME280;49185;42.320;23.198;2024-02-21T06:37:40;95561.94;;;5.00;100.00
63097;BME280;49185;42.320;23.198;2024-02-21T06:40:06;95560.53;;;5.04;100.00
63097;BME280;49185;42.320;23.198;2024-02-21T06:42:31;95560.22;;;5.20;100.00
63097;BME280;49185;42.320;23.198;2024-02-21T06:44:57;95568.41;;;5.32;100.00
63097;BME280;49185;42.320;23.198;2024-02-21T06:47:22;95568.84;;;5.36;100.00
63097;BME280;49185;42.320;23.198;2024-02-21T06:49:51;95564.63;;;5.48;100.00
63097;BME280;49185;42.320;23.198;2024-02-21T06:52:19;95568.19;;;5.68;100.00
63097;BME280;49185;42.320;23.198;2024-02-21T06:54:45;95579.41;;;5.84;100.00
63097;BME280;49185;42.320;23.198;2024-02-21T06:57:10;95577.59;;;5.91;100.00
63097;BME280;49185;42.320;23.198;2024-02-21T06:59:35;95580.53;;;6.03;100.00
63097;BME280;49185;42.320;23.198;2024-02-21T07:02:01;95575.00;;;5.98;100.00
63097;BME280;49185;42.320;23.198;2024-02-21T07:04:26;95574.97;;;5.91;100.00
63097;BME280;49185;42.320;23.198;2024-02-21T07:06:51;95573.00;;;6.00;100.00
63097;BME280;49185;42.320;23.198;2024-02-21T07:09:17;95570.53;;;5.98;100.00
63097;BME280;49185;42.320;23.198;2024-02-21T07:11:42;95569.69;;;5.91;100.00
63097;BME280;49185;42.320;23.198;2024-02-21T07:14:10;95567.88;;;5.92;100.00
63097;BME280;49185;42.320;23.198;2024-02-21T07:16:35;95566.09;;;5.99;100.00
63097;BME280;49185;42.320;23.198;2024-02-21T07:19:01;95567.75;;;6.13;100.00
63097;BME280;49185;42.320;23.198;2024-02-21T07:21:27;95569.00;;;6.37;100.00
63097;BME280;49185;42.320;23.198;2024-02-21T07:23:52;95571.47;;;6.45;100.00
63097;BME280;49185;42.320;23.198;2024-02-21T07:26:18;95567.59;;;6.55;100.00
63097;BME280;49185;42.320;23.198;2024-02-21T07:28:43;95575.13;;;6.51;100.00
63097;BME280;49185;42.320;23.198;2024-02-21T07:31:08;95575.34;;;6.63;100.00
63097;BME280;49185;42.320;23.198;2024-02-21T07:33:34;95572.69;;;6.83;100.00
63097;BME280;49185;42.320;23.198;2024-02-21T07:35:59;95572.09;;;6.68;100.00
63097;BME280;49185;42.320;23.198;2024-02-21T07:38:24;95571.50;;;6.86;100.00
63097;BME280;49185;42.320;23.198;2024-02-21T07:40:50;95572.50;;;6.84;100.00
63097;BME280;49185;42.320;23.198;2024-02-21T07:43:15;95576.16;;;6.77;100.00
63097;BME280;49185;42.320;23.198;2024-02-21T07:45:40;95567.81;;;7.00;100.00
63097;BME280;49185;42.320;23.198;2024-02-21T07:48:06;95573.06;;;7.13;100.00
63097;BME280;49185;42.320;23.198;2024-02-21T07:50:32;95571.66;;;7.17;98.57
63097;BME280;49185;42.320;23.198;2024-02-21T07:52:57;95577.56;;;7.13;99.74
63097;BME280;49185;42.320;23.198;2024-02-21T07:55:22;95571.03;;;7.29;100.00
63097;BME280;49185;42.320;23.198;2024-02-21T07:57:48;95571.88;;;7.09;99.92
63097;BME280;49185;42.320;23.198;2024-02-21T08:00:15;95567.59;;;7.15;99.55
63097;BME280;49185;42.320;23.198;2024-02-21T08:02:40;95566.38;;;7.04;98.98
63097;BME280;49185;42.320;23.198;2024-02-21T08:05:06;95570.88;;;7.10;99.59
63097;BME280;49185;42.320;23.198;2024-02-21T08:07:31;95578.81;;;7.10;99.57
63097;BME280;49185;42.320;23.198;2024-02-21T08:09:57;95566.56;;;7.09;100.00
63097;BME280;49185;42.320;23.198;2024-02-21T08:12:22;95567.41;;;6.96;100.00
63097;BME280;49185;42.320;23.198;2024-02-21T08:14:47;95575.13;;;7.25;99.00
63097;BME280;49185;42.320;23.198;2024-02-21T08:17:13;95566.13;;;7.46;97.23
63097;BME280;49185;42.320;23.198;2024-02-21T08:19:38;95565.31;;;7.38;99.11
63097;BME280;49185;42.320;23.198;2024-02-21T08:22:03;95573.81;;;7.54;95.13
63097;BME280;49185;42.320;23.198;2024-02-21T08:24:29;95570.09;;;7.68;94.48
63097;BME280;49185;42.320;23.198;2024-02-21T08:26:54;95562.19;;;7.62;95.50
63097;BME280;49185;42.320;23.198;2024-02-21T08:29:19;95568.09;;;7.64;95.96
63097;BME280;49185;42.320;23.198;2024-02-21T08:31:45;95563.16;;;7.74;94.56
63097;BME280;49185;42.320;23.198;2024-02-21T08:34:10;95573.28;;;7.90;94.68
63097;BME280;49185;42.320;23.198;2024-02-21T08:36:36;95570.63;;;7.97;92.40
63097;BME280;49185;42.320;23.198;2024-02-21T08:39:02;95575.22;;;8.08;92.14
63097;BME280;49185;42.320;23.198;2024-02-21T08:41:30;95571.59;;;8.03;93.08
63097;BME280;49185;42.320;23.198;2024-02-21T08:43:56;95577.53;;;8.36;92.12
63097;BME280;49185;42.320;23.198;2024-02-21T08:46:22;95572.47;;;8.28;89.66
63097;BME280;49185;42.320;23.198;2024-02-21T08:48:47;95562.91;;;8.27;91.70
63097;BME280;49185;42.320;23.198;2024-02-21T08:51:13;95569.47;;;8.57;91.65
63097;BME280;49185;42.320;23.198;2024-02-21T08:53:38;95567.75;;;8.30;93.21
63097;BME280;49185;42.320;23.198;2024-02-21T08:56:04;95569.53;;;8.50;93.01
63097;BME280;49185;42.320;23.198;2024-02-21T08:58:30;95571.19;;;8.06;94.85
63097;BME280;49185;42.320;23.198;2024-02-21T09:00:55;95565.66;;;8.39;93.54
63097;BME280;49185;42.320;23.198;2024-02-21T09:03:21;95579.19;;;8.69;92.42
63097;BME280;49185;42.320;23.198;2024-02-21T09:05:46;95569.50;;;9.07;87.96
63097;BME280;49185;42.320;23.198;2024-02-21T09:08:12;95572.59;;;9.47;84.29
63097;BME280;49185;42.320;23.198;2024-02-21T09:10:39;95565.91;;;9.38;85.21
63097;BME280;49185;42.320;23.198;2024-02-21T09:13:04;95557.63;;;9.09;88.56
63097;BME280;49185;42.320;23.198;2024-02-21T09:15:30;95557.97;;;8.95;92.33
63097;BME280;49185;42.320;23.198;2024-02-21T09:17:55;95559.69;;;9.07;89.42
63097;BME280;49185;42.320;23.198;2024-02-21T09:20:20;95559.63;;;9.14;90.91
63097;BME280;49185;42.320;23.198;2024-02-21T09:22:46;95559.84;;;9.31;89.86
63097;BME280;49185;42.320;23.198;2024-02-21T09:25:11;95559.16;;;9.42;90.09
63097;BME280;49185;42.320;23.198;2024-02-21T09:27:40;95561.34;;;9.27;93.37
63097;BME280;49185;42.320;23.198;2024-02-21T09:30:06;95561.66;;;9.37;91.63
63097;BME280;49185;42.320;23.198;2024-02-21T09:32:31;95562.56;;;9.06;92.06
63097;BME280;49185;42.320;23.198;2024-02-21T09:34:57;95562.50;;;9.12;88.97
63097;BME280;49185;42.320;23.198;2024-02-21T09:37:22;95560.13;;;9.04;87.77
63097;BME280;49185;42.320;23.198;2024-02-21T09:39:47;95559.47;;;9.27;89.24
63097;BME280;49185;42.320;23.198;2024-02-21T09:42:14;95569.47;;;9.32;89.99
63097;BME280;49185;42.320;23.198;2024-02-21T09:44:45;95563.59;;;9.05;92.06
63097;BME280;49185;42.320;23.198;2024-02-21T09:47:22;95564.75;;;9.34;88.98
63097;BME280;49185;42.320;23.198;2024-02-21T09:49:49;95569.16;;;9.22;87.54
63097;BME280;49185;42.320;23.198;2024-02-21T09:52:15;95566.00;;;9.50;85.14
63097;BME280;49185;42.320;23.198;2024-02-21T09:54:41;95560.50;;;9.08;88.93
63097;BME280;49185;42.320;23.198;2024-02-21T09:57:07;95568.97;;;8.98;90.69
63097;BME280;49185;42.320;23.198;2024-02-21T09:59:33;95562.97;;;9.03;90.33
63097;BME280;49185;42.320;23.198;2024-02-21T10:01:59;95555.97;;;9.34;85.52
63097;BME280;49185;42.320;23.198;2024-02-21T10:04:24;95550.88;;;9.69;83.09
63097;BME280;49185;42.320;23.198;2024-02-21T10:06:50;95558.94;;;9.62;85.72
63097;BME280;49185;42.320;23.198;2024-02-21T10:09:25;95545.94;;;9.54;83.09
63097;BME280;49185;42.320;23.198;2024-02-21T10:11:51;95542.38;;;9.79;83.76
63097;BME280;49185;42.320;23.198;2024-02-21T10:14:16;95539.66;;;9.67;85.01
63097;BME280;49185;42.320;23.198;2024-02-21T10:16:42;95537.44;;;9.45;82.82
63097;BME280;49185;42.320;23.198;2024-02-21T10:19:16;95539.94;;;9.96;81.13
63097;BME280;49185;42.320;23.198;2024-02-21T10:21:42;95532.97;;;9.95;75.99
63097;BME280;49185;42.320;23.198;2024-02-21T10:24:07;95533.13;;;10.00;77.46
63097;BME280;49185;42.320;23.198;2024-02-21T10:26:33;95525.88;;;10.37;75.23
63097;BME280;49185;42.320;23.198;2024-02-21T10:28:58;95523.69;;;10.34;75.27
63097;BME280;49185;42.320;23.198;2024-02-21T10:31:27;95528.38;;;10.02;75.77
63097;BME280;49185;42.320;23.198;2024-02-21T10:34:00;95527.00;;;10.30;71.29
63097;BME280;49185;42.320;23.198;2024-02-21T10:36:26;95513.63;;;10.48;71.45
63097;BME280;49185;42.320;23.198;2024-02-21T10:38:52;95516.22;;;10.55;74.18
63097;BME280;49185;42.320;23.198;2024-02-21T10:41:20;95515.19;;;10.68;71.30
63097;BME280;49185;42.320;23.198;2024-02-21T10:43:49;95509.25;;;10.42;74.39
63097;BME280;49185;42.320;23.198;2024-02-21T10:46:19;95505.59;;;10.24;72.85
63097;BME280;49185;42.320;23.198;2024-02-21T10:48:46;95511.47;;;10.26;72.31
63097;BME280;49185;42.320;23.198;2024-02-21T10:51:16;95501.84;;;10.44;70.18
63097;BME280;49185;42.320;23.198;2024-02-21T10:53:45;95500.94;;;10.50;72.98
63097;BME280;49185;42.320;23.198;2024-02-21T10:56:26;95488.66;;;10.07;71.87
63097;BME280;49185;42.320;23.198;2024-02-21T10:58:53;95494.09;;;10.12;73.19
63097;BME280;49185;42.320;23.198;2024-02-21T11:01:19;95485.25;;;10.30;71.35
63097;BME280;49185;42.320;23.198;2024-02-21T11:03:46;95484.03;;;10.14;71.16
63097;BME280;49185;42.320;23.198;2024-02-21T11:06:13;95481.75;;;10.18;72.02
63097;BME280;49185;42.320;23.198;2024-02-21T11:08:40;95473.56;;;10.73;69.83
63097;BME280;49185;42.320;23.198;2024-02-21T11:11:05;95467.75;;;10.88;71.93
63097;BME280;49185;42.320;23.198;2024-02-21T11:13:35;95458.97;;;10.88;72.34
63097;BME280;49185;42.320;23.198;2024-02-21T11:16:10;95469.72;;;10.69;67.08
63097;BME280;49185;42.320;23.198;2024-02-21T11:18:37;95457.31;;;11.22;66.65
63097;BME280;49185;42.320;23.198;2024-02-21T11:21:03;95455.84;;;11.55;70.07
63097;BME280;49185;42.320;23.198;2024-02-21T11:23:28;95448.63;;;11.15;70.38
63097;BME280;49185;42.320;23.198;2024-02-21T11:26:07;95452.84;;;10.87;69.23
63097;BME280;49185;42.320;23.198;2024-02-21T11:28:32;95444.28;;;10.73;70.32
63097;BME280;49185;42.320;23.198;2024-02-21T11:31:15;95437.66;;;11.52;69.09
63097;BME280;49185;42.320;23.198;2024-02-21T11:33:41;95433.97;;;11.82;66.91
63097;BME280;49185;42.320;23.198;2024-02-21T11:36:10;95435.34;;;11.84;64.11
63097;BME280;49185;42.320;23.198;2024-02-21T11:38:36;95442.84;;;11.30;66.82
63097;BME280;49185;42.320;23.198;2024-02-21T11:41:02;95434.19;;;11.51;66.51
63097;BME280;49185;42.320;23.198;2024-02-21T11:43:27;95427.03;;;10.76;66.59
63097;BME280;49185;42.320;23.198;2024-02-21T11:46:02;95419.63;;;10.66;69.84
63097;BME280;49185;42.320;23.198;2024-02-21T11:48:27;95419.59;;;10.42;68.84
63097;BME280;49185;42.320;23.198;2024-02-21T11:50:54;95423.66;;;10.45;67.56
63097;BME280;49185;42.320;23.198;2024-02-21T11:53:20;95420.84;;;10.28;66.80
63097;BME280;49185;42.320;23.198;2024-02-21T11:55:46;95407.31;;;10.30;67.91
63097;BME280;49185;42.320;23.198;2024-02-21T11:58:11;95417.66;;;10.50;67.64
63097;BME280;49185;42.320;23.198;2024-02-21T12:00:37;95412.56;;;10.36;66.20
63097;BME280;49185;42.320;23.198;2024-02-21T12:03:04;95404.06;;;10.27;74.14
63097;BME280;49185;42.320;23.198;2024-02-21T12:05:29;95414.09;;;10.14;70.97
63097;BME280;49185;42.320;23.198;2024-02-21T12:07:55;95411.41;;;10.02;67.88
63097;BME280;49185;42.320;23.198;2024-02-21T12:10:20;95401.41;;;10.27;68.20
63097;BME280;49185;42.320;23.198;2024-02-21T12:12:46;95408.72;;;10.32;67.59
63097;BME280;49185;42.320;23.198;2024-02-21T12:15:11;95401.63;;;10.14;67.39
63097;BME280;49185;42.320;23.198;2024-02-21T12:17:37;95390.31;;;10.19;67.20
63097;BME280;49185;42.320;23.198;2024-02-21T12:20:03;95396.47;;;10.31;66.56
63097;BME280;49185;42.320;23.198;2024-02-21T12:22:29;95386.00;;;10.18;68.42
63097;BME280;49185;42.320;23.198;2024-02-21T12:24:55;95397.81;;;10.10;69.55
63097;BME280;49185;42.320;23.198;2024-02-21T12:27:20;95390.97;;;10.02;65.12
63097;BME280;49185;42.320;23.198;2024-02-21T12:29:45;95387.09;;;9.75;65.80
63097;BME280;49185;42.320;23.198;2024-02-21T12:32:11;95390.19;;;9.72;65.94
63097;BME280;49185;42.320;23.198;2024-02-21T12:34:36;95386.72;;;9.71;66.00
63097;BME280;49185;42.320;23.198;2024-02-21T12:37:02;95379.03;;;9.81;66.68
63097;BME280;49185;42.320;23.198;2024-02-21T12:39:27;95376.81;;;9.78;67.10
63097;BME280;49185;42.320;23.198;2024-02-21T12:41:53;95370.34;;;9.74;67.37
63097;BME280;49185;42.320;23.198;2024-02-21T12:44:18;95375.53;;;9.81;67.47
63097;BME280;49185;42.320;23.198;2024-02-21T12:46:44;95379.72;;;9.88;66.13